createdAt,value
2018-10-03T16:02:24.342Z,15.30
2018-10-03T16:04:52.546Z,14.90
2018-10-03T16:07:20.769Z,14.90
2018-10-03T16:09:48.947Z,14.80
2018-10-03T16:12:17.130Z,14.80
2018-10-03T16:14:45.328Z,15.00
2018-10-03T16:17:13.506Z,14.90
2018-10-03T16:19:41.684Z,14.60
2018-10-03T16:22:09.885Z,14.30
2018-10-03T16:24:38.046Z,14.10
2018-10-03T16:27:06.324Z,13.90
2018-10-03T16:29:34.512Z,13.80
2018-10-03T16:32:02.714Z,13.60
2018-10-03T16:34:30.899Z,13.60
2018-10-03T16:36:59.081Z,13.50
2018-10-03T16:39:27.266Z,13.50
2018-10-03T16:41:56.264Z,13.80
2018-10-03T16:44:24.465Z,13.80
2018-10-03T16:46:52.673Z,13.50
2018-10-03T16:49:20.905Z,13.50
2018-10-03T16:51:49.087Z,13.40
2018-10-03T16:54:17.262Z,13.20
2018-10-03T16:56:45.442Z,13.10
2018-10-03T16:59:13.596Z,13.00
2018-10-03T17:01:41.862Z,12.90
2018-10-03T17:04:10.106Z,12.80
2018-10-03T17:06:38.282Z,12.80
2018-10-03T17:09:07.096Z,12.70
2018-10-03T17:11:35.693Z,12.70
2018-10-03T17:14:19.926Z,12.60
2018-10-03T17:16:48.105Z,12.50
2018-10-03T17:19:16.351Z,12.40
2018-10-03T17:21:44.539Z,12.30
2018-10-03T17:24:12.737Z,12.20
2018-10-03T17:26:40.916Z,12.20
2018-10-03T17:29:09.109Z,12.10
2018-10-03T17:31:37.274Z,12.00
2018-10-03T17:34:05.502Z,11.90
2018-10-03T17:36:33.657Z,11.90
2018-10-03T17:39:01.871Z,11.80
2018-10-03T17:41:30.053Z,11.80
2018-10-03T17:43:58.249Z,11.70
2018-10-03T17:46:26.434Z,11.70
2018-10-03T17:48:54.669Z,11.70
2018-10-03T17:51:22.803Z,11.70
2018-10-03T17:53:51.079Z,11.70
2018-10-03T17:56:19.296Z,11.60
2018-10-03T17:58:47.481Z,11.60
2018-10-03T18:01:15.726Z,11.50
2018-10-03T18:03:43.936Z,11.40
2018-10-03T18:06:12.126Z,11.30
2018-10-03T18:08:40.329Z,11.30
2018-10-03T18:11:08.498Z,11.20
2018-10-03T18:13:36.840Z,11.20
2018-10-03T18:16:05.090Z,11.10
2018-10-03T18:18:33.183Z,11.10
2018-10-03T18:21:01.373Z,11.00
2018-10-03T18:23:29.567Z,10.90
2018-10-03T18:25:57.854Z,10.90
2018-10-03T18:28:26.072Z,10.80
2018-10-03T18:30:54.270Z,10.80
2018-10-03T18:33:22.639Z,10.70
2018-10-03T18:35:50.894Z,10.60
2018-10-03T18:38:19.070Z,10.70
2018-10-03T18:40:47.286Z,10.60
2018-10-03T18:43:15.486Z,10.60
2018-10-03T18:45:43.684Z,10.50
2018-10-03T18:48:11.872Z,10.40
2018-10-03T18:50:40.213Z,10.40
2018-10-03T18:53:08.542Z,10.30
2018-10-03T18:55:36.762Z,10.30
2018-10-03T18:58:04.933Z,10.30
2018-10-03T19:00:33.130Z,10.20
2018-10-03T19:03:01.268Z,10.20
2018-10-03T19:05:29.444Z,10.10
2018-10-03T19:07:57.629Z,10.10
2018-10-03T19:10:25.828Z,10.00
2018-10-03T19:12:54.018Z,10.00
2018-10-03T19:15:22.201Z,10.20
2018-10-03T19:17:50.403Z,10.00
2018-10-03T19:20:18.678Z,10.10
2018-10-03T19:22:46.797Z,10.10
2018-10-03T19:25:14.989Z,10.10
2018-10-03T19:27:43.165Z,10.10
2018-10-03T19:30:11.374Z,10.20
2018-10-03T19:32:39.561Z,10.30
2018-10-03T19:35:07.737Z,10.40
2018-10-03T19:37:36.083Z,10.30
2018-10-03T19:40:04.264Z,10.50
2018-10-03T19:42:32.458Z,10.30
2018-10-03T19:45:00.684Z,10.30
2018-10-03T19:47:28.922Z,10.30
2018-10-03T19:49:57.177Z,10.70
2018-10-03T19:52:25.533Z,10.80
2018-10-03T19:54:53.844Z,10.90
2018-10-03T19:57:22.083Z,10.90
2018-10-03T19:59:50.287Z,10.90
2018-10-03T20:02:18.474Z,10.70
2018-10-03T20:04:46.658Z,10.80
2018-10-03T20:07:14.874Z,10.50
2018-10-03T20:09:43.066Z,10.60
2018-10-03T20:12:11.275Z,10.60
2018-10-03T20:14:39.441Z,10.70
2018-10-03T20:17:07.633Z,10.90
2018-10-03T20:19:35.794Z,10.40
2018-10-03T20:22:03.970Z,10.30
2018-10-03T20:24:32.137Z,10.20
2018-10-03T20:27:00.294Z,10.20
2018-10-03T20:29:28.474Z,10.00
2018-10-03T20:31:56.653Z,9.90
2018-10-03T20:34:24.821Z,9.80
2018-10-03T20:36:53.014Z,9.80
2018-10-03T20:39:21.215Z,9.70
2018-10-03T20:41:56.232Z,9.60
2018-10-03T20:44:24.262Z,9.50
2018-10-03T20:46:52.470Z,9.40
2018-10-03T20:49:20.699Z,9.40
2018-10-03T20:51:49.226Z,9.30
2018-10-03T20:54:17.421Z,9.40
2018-10-03T20:56:45.625Z,9.30
2018-10-03T20:59:13.826Z,9.50
2018-10-03T21:01:42.021Z,9.50
2018-10-03T21:04:10.189Z,9.80
2018-10-03T21:06:38.366Z,9.70
2018-10-03T21:09:07.732Z,9.60
2018-10-03T21:11:36.706Z,9.50
2018-10-03T21:14:04.896Z,9.70
2018-10-03T21:16:33.348Z,9.50
2018-10-03T21:19:01.836Z,9.40
2018-10-03T21:21:30.061Z,9.30
2018-10-03T21:23:58.215Z,9.20
2018-10-03T21:26:26.391Z,9.20
2018-10-03T21:28:54.577Z,9.10
2018-10-03T21:31:22.758Z,9.10
2018-10-03T21:33:50.958Z,9.00
2018-10-03T21:36:19.146Z,9.00
2018-10-03T21:38:47.312Z,9.00
2018-10-03T21:41:15.570Z,8.90
2018-10-03T21:43:43.819Z,8.80
2018-10-03T21:46:11.926Z,8.70
2018-10-03T21:48:40.110Z,8.70
2018-10-03T21:51:08.305Z,8.70
2018-10-03T21:53:36.737Z,8.60
2018-10-03T21:56:04.890Z,8.60
2018-10-03T21:58:33.069Z,8.50
